createdAt,value
2018-09-26T00:01:47.423Z,5.50
2018-09-26T00:04:21.239Z,5.20
2018-09-26T00:06:49.785Z,5.40
2018-09-26T00:09:18.306Z,5.90
2018-09-26T00:11:46.884Z,6.10
2018-09-26T00:14:15.381Z,6.10
2018-09-26T00:16:43.904Z,6.00
2018-09-26T00:19:12.446Z,5.50
2018-09-26T00:21:40.980Z,5.40
2018-09-26T00:24:09.493Z,5.20
2018-09-26T00:26:38.026Z,4.80
2018-09-26T00:29:06.579Z,4.70
2018-09-26T00:31:35.045Z,5.10
2018-09-26T00:34:03.547Z,4.90
2018-09-26T00:36:32.097Z,4.70
2018-09-26T00:39:00.625Z,4.90
2018-09-26T00:41:29.145Z,4.80
2018-09-26T00:43:57.670Z,4.80
2018-09-26T00:46:26.178Z,4.70
2018-09-26T00:48:54.712Z,4.80
2018-09-26T00:51:23.281Z,5.30
2018-09-26T00:53:51.835Z,5.40
2018-09-26T00:56:20.381Z,5.20
2018-09-26T00:58:48.870Z,4.90
2018-09-26T01:01:17.398Z,4.80
2018-09-26T01:03:46.030Z,5.20
2018-09-26T01:06:14.584Z,5.40
2018-09-26T01:08:43.079Z,4.80
2018-09-26T01:11:11.593Z,5.00
2018-09-26T01:13:40.100Z,5.30
2018-09-26T01:16:08.634Z,5.30
2018-09-26T01:18:37.103Z,5.20
2018-09-26T01:21:05.642Z,4.80
2018-09-26T01:23:34.206Z,5.10
2018-09-26T01:26:02.709Z,4.30
2018-09-26T01:28:31.282Z,4.40
2018-09-26T01:30:59.978Z,4.50
2018-09-26T01:33:28.559Z,4.50
2018-09-26T01:35:57.081Z,4.50
2018-09-26T01:38:25.606Z,4.50
2018-09-26T01:40:54.097Z,4.70
2018-09-26T01:43:22.647Z,4.80
2018-09-26T01:45:51.128Z,4.20
2018-09-26T01:48:19.612Z,4.80
2018-09-26T01:50:48.115Z,4.90
2018-09-26T01:53:16.627Z,4.70
2018-09-26T01:55:45.158Z,4.70
2018-09-26T01:58:13.712Z,4.40
2018-09-26T02:00:42.207Z,4.30
2018-09-26T02:03:10.678Z,4.50
2018-09-26T02:05:39.201Z,4.70
2018-09-26T02:08:07.731Z,4.40
2018-09-26T02:10:36.172Z,4.00
2018-09-26T02:13:04.714Z,4.70
2018-09-26T02:15:33.259Z,4.30
2018-09-26T02:18:01.789Z,4.30
2018-09-26T02:20:30.255Z,4.30
2018-09-26T02:22:58.782Z,4.10
2018-09-26T02:25:27.313Z,3.80
2018-09-26T02:27:55.818Z,3.70
2018-09-26T02:30:24.350Z,4.20
2018-09-26T02:32:52.862Z,3.60
2018-09-26T02:35:21.374Z,4.20
2018-09-26T02:37:49.888Z,5.00
2018-09-26T02:40:18.428Z,4.80
2018-09-26T02:42:46.960Z,3.90
2018-09-26T02:45:15.495Z,3.90
2018-09-26T02:47:43.998Z,3.80
2018-09-26T02:50:12.536Z,4.10
2018-09-26T02:52:41.064Z,4.20
2018-09-26T02:55:09.582Z,3.70
2018-09-26T02:57:38.056Z,3.80
2018-09-26T03:00:10.213Z,3.90
2018-09-26T03:02:38.735Z,3.60
2018-09-26T03:05:07.271Z,3.60
2018-09-26T03:07:35.796Z,3.40
2018-09-26T03:10:04.729Z,3.30
2018-09-26T03:12:33.170Z,3.10
2018-09-26T03:15:01.669Z,3.40
2018-09-26T03:17:30.245Z,3.80
2018-09-26T03:19:58.726Z,3.40
2018-09-26T03:22:27.282Z,3.50
2018-09-26T03:24:55.786Z,3.70
2018-09-26T03:27:24.277Z,4.00
2018-09-26T03:29:52.753Z,3.60
2018-09-26T03:32:21.262Z,3.90
2018-09-26T03:34:49.794Z,4.00
2018-09-26T03:37:18.304Z,4.20
2018-09-26T03:39:46.798Z,3.70
2018-09-26T03:42:15.271Z,4.00
2018-09-26T03:44:43.775Z,3.90
2018-09-26T03:47:12.245Z,4.10
2018-09-26T03:49:40.791Z,4.10
2018-09-26T03:52:09.300Z,4.20
2018-09-26T03:54:37.822Z,4.00
2018-09-26T03:57:06.331Z,3.80
2018-09-26T03:59:34.792Z,4.20
2018-09-26T04:02:03.358Z,4.20
2018-09-26T04:04:31.847Z,3.90
2018-09-26T04:07:00.292Z,4.00
2018-09-26T04:09:28.780Z,3.90
2018-09-26T04:11:57.318Z,3.60
2018-09-26T04:14:25.841Z,3.20
2018-09-26T04:16:54.340Z,3.10
2018-09-26T04:19:22.861Z,3.30
2018-09-26T04:21:51.380Z,3.30
2018-09-26T04:24:19.941Z,3.30
2018-09-26T04:26:48.842Z,3.30
2018-09-26T04:29:17.048Z,3.70
2018-09-26T04:31:45.551Z,4.10
2018-09-26T04:34:14.038Z,3.70
2018-09-26T04:36:42.537Z,3.50
2018-09-26T04:39:12.383Z,3.60
2018-09-26T04:41:41.202Z,3.40
2018-09-26T04:44:10.004Z,3.30
2018-09-26T04:46:38.550Z,3.20
2018-09-26T04:49:07.083Z,3.30
2018-09-26T04:51:36.339Z,3.20
2018-09-26T04:54:12.413Z,3.20
2018-09-26T04:56:40.951Z,3.20
2018-09-26T04:59:09.537Z,3.90
2018-09-26T05:01:38.050Z,4.10
2018-09-26T05:04:06.618Z,4.20
2018-09-26T05:06:35.137Z,4.10
2018-09-26T05:09:07.822Z,3.50
2018-09-26T05:11:36.902Z,3.40
2018-09-26T05:14:05.757Z,3.50
2018-09-26T05:16:34.241Z,3.50
2018-09-26T05:19:02.841Z,3.60
2018-09-26T05:21:31.411Z,3.80
2018-09-26T05:24:00.028Z,3.80
2018-09-26T05:26:28.510Z,4.00
2018-09-26T05:28:56.996Z,3.90
2018-09-26T05:31:25.876Z,3.60
2018-09-26T05:33:54.387Z,3.60
2018-09-26T05:36:22.917Z,3.80
2018-09-26T05:38:51.397Z,3.90
2018-09-26T05:41:19.917Z,4.10
2018-09-26T05:43:48.553Z,4.50
2018-09-26T05:46:17.034Z,4.10
2018-09-26T05:48:45.700Z,4.10
2018-09-26T05:51:14.324Z,4.00
2018-09-26T05:53:42.797Z,3.90
2018-09-26T05:56:11.384Z,4.00
2018-09-26T05:58:39.911Z,4.00
2018-09-26T06:01:08.398Z,4.10
2018-09-26T06:03:36.951Z,4.10
2018-09-26T06:06:05.545Z,4.10
2018-09-26T06:08:34.035Z,4.00
2018-09-26T06:11:03.525Z,4.00
2018-09-26T06:13:32.031Z,4.00
2018-09-26T06:16:00.540Z,4.00
2018-09-26T06:18:29.109Z,4.00
2018-09-26T06:20:57.627Z,4.10
2018-09-26T06:23:26.119Z,4.20
2018-09-26T06:25:54.657Z,4.30
2018-09-26T06:28:23.182Z,4.30
2018-09-26T06:30:51.689Z,4.40
2018-09-26T06:33:20.212Z,4.50
2018-09-26T06:35:48.771Z,4.50
2018-09-26T06:38:17.217Z,4.50
2018-09-26T06:40:45.778Z,4.60
2018-09-26T06:43:14.337Z,4.70
2018-09-26T06:45:42.914Z,4.70
2018-09-26T06:48:11.739Z,4.80
2018-09-26T06:50:40.321Z,4.90
2018-09-26T06:53:08.856Z,5.00
2018-09-26T06:55:37.466Z,5.10
2018-09-26T06:58:06.037Z,5.20
2018-09-26T07:00:34.589Z,5.20
2018-09-26T07:03:03.130Z,5.30
2018-09-26T07:05:31.670Z,5.40
2018-09-26T07:08:00.203Z,5.50
2018-09-26T07:10:28.736Z,5.60
2018-09-26T07:12:57.211Z,5.70
2018-09-26T07:15:25.793Z,5.80
2018-09-26T07:17:54.324Z,5.90
2018-09-26T07:20:23.027Z,6.10
2018-09-26T07:22:51.539Z,6.10
2018-09-26T07:25:20.202Z,6.10
2018-09-26T07:27:48.734Z,6.20
2018-09-26T07:30:17.380Z,6.10
2018-09-26T07:32:45.897Z,6.10
2018-09-26T07:35:14.399Z,6.10
2018-09-26T07:37:42.913Z,6.20
2018-09-26T07:40:11.446Z,6.30
2018-09-26T07:42:40.011Z,6.40
2018-09-26T07:45:11.712Z,6.60
2018-09-26T07:47:40.232Z,6.80
2018-09-26T07:50:08.734Z,6.90
2018-09-26T07:52:37.326Z,6.90
2018-09-26T07:55:05.878Z,7.00
2018-09-26T07:57:34.591Z,7.20
2018-09-26T08:02:38.369Z,7.30
2018-09-26T08:05:06.899Z,7.50
2018-09-26T08:07:35.448Z,7.80
2018-09-26T08:10:03.957Z,8.00
2018-09-26T08:12:32.495Z,8.50
2018-09-26T08:15:01.019Z,8.80
2018-09-26T08:17:29.529Z,9.00
2018-09-26T08:19:58.006Z,9.00
2018-09-26T08:22:26.531Z,9.10
2018-09-26T08:24:55.097Z,9.20
2018-09-26T08:27:23.561Z,9.60
2018-09-26T08:29:52.075Z,9.80
2018-09-26T08:32:20.622Z,10.00
2018-09-26T08:34:49.172Z,9.80
2018-09-26T08:37:17.756Z,10.10
2018-09-26T08:39:46.259Z,10.20
2018-09-26T08:42:14.749Z,10.30
2018-09-26T08:44:43.288Z,10.80
2018-09-26T08:47:11.785Z,11.10
2018-09-26T08:49:40.347Z,11.40
2018-09-26T08:52:08.889Z,11.50
2018-09-26T08:54:37.476Z,11.70
2018-09-26T08:57:05.925Z,11.90
2018-09-26T08:59:34.486Z,12.20
2018-09-26T09:02:03.021Z,11.90
2018-09-26T09:04:31.549Z,12.50
2018-09-26T09:07:00.035Z,12.30
2018-09-26T09:09:28.574Z,12.50
2018-09-26T09:11:57.071Z,13.00
2018-09-26T09:14:25.636Z,12.90
2018-09-26T09:16:54.175Z,13.00
2018-09-26T09:19:22.706Z,12.80
2018-09-26T09:21:51.223Z,13.30
2018-09-26T09:24:19.753Z,13.50
2018-09-26T09:26:48.250Z,14.00
2018-09-26T09:29:16.736Z,13.50
2018-09-26T09:31:45.273Z,14.00
2018-09-26T09:34:13.798Z,14.00
2018-09-26T09:36:42.546Z,13.80
2018-09-26T09:39:11.284Z,14.10
2018-09-26T09:41:39.818Z,13.90
2018-09-26T09:44:08.398Z,14.50
2018-09-26T09:46:36.893Z,14.70
2018-09-26T09:49:05.552Z,14.90
2018-09-26T09:51:34.113Z,14.90
2018-09-26T09:54:05.255Z,15.00
2018-09-26T09:56:33.801Z,15.70
2018-09-26T09:59:02.464Z,15.90
2018-09-26T10:01:30.997Z,15.80
2018-09-26T10:04:00.371Z,15.40
2018-09-26T10:06:29.596Z,15.80
2018-09-26T10:08:58.783Z,15.70
2018-09-26T10:11:28.501Z,16.20
2018-09-26T10:13:57.139Z,16.10
2018-09-26T10:16:25.757Z,16.10
2018-09-26T10:18:54.392Z,15.60
2018-09-26T10:21:22.939Z,15.00
2018-09-26T10:23:51.478Z,15.20
2018-09-26T10:26:20.038Z,15.70
2018-09-26T10:28:48.578Z,15.80
2018-09-26T10:31:17.120Z,16.30
2018-09-26T10:33:45.586Z,16.60
2018-09-26T10:36:14.466Z,16.30
2018-09-26T10:38:43.018Z,16.20
2018-09-26T10:41:11.498Z,16.60
2018-09-26T10:43:40.005Z,16.40
2018-09-26T10:46:08.676Z,15.90
2018-09-26T10:48:37.262Z,16.30
2018-09-26T10:51:05.814Z,16.50
2018-09-26T10:53:34.366Z,16.90
2018-09-26T10:56:02.958Z,17.00
2018-09-26T10:58:31.522Z,17.10
2018-09-26T11:01:00.092Z,17.70
2018-09-26T11:03:28.640Z,18.30
2018-09-26T11:05:57.149Z,16.90
2018-09-26T11:08:25.690Z,16.90
2018-09-26T11:10:54.152Z,17.00
2018-09-26T11:13:22.700Z,17.30
2018-09-26T11:15:51.505Z,16.90
2018-09-26T11:18:20.049Z,16.10
2018-09-26T11:20:48.790Z,16.00
2018-09-26T11:23:17.325Z,16.10
2018-09-26T11:25:45.873Z,16.30
2018-09-26T11:28:14.430Z,16.70
2018-09-26T11:30:42.965Z,16.30
2018-09-26T11:33:13.120Z,16.40
2018-09-26T11:35:41.637Z,16.30
2018-09-26T11:38:10.231Z,16.60
2018-09-26T11:40:38.785Z,16.80
2018-09-26T11:43:07.625Z,16.90
2018-09-26T11:45:36.125Z,16.80
2018-09-26T11:48:04.703Z,16.80
2018-09-26T11:50:33.294Z,16.70
2018-09-26T11:53:01.824Z,17.60
2018-09-26T11:55:30.384Z,18.50
2018-09-26T11:57:58.854Z,18.60
2018-09-26T12:00:27.358Z,19.00
2018-09-26T12:02:55.867Z,18.50
2018-09-26T12:05:24.432Z,17.70
2018-09-26T12:07:52.999Z,17.30
2018-09-26T12:10:21.653Z,17.20
2018-09-26T12:12:50.169Z,17.20
2018-09-26T12:15:18.703Z,17.50
2018-09-26T12:17:47.272Z,17.50
2018-09-26T12:20:15.807Z,18.10
2018-09-26T12:22:44.332Z,18.90
2018-09-26T12:25:12.869Z,18.90
2018-09-26T12:27:41.436Z,18.60
2018-09-26T12:30:09.959Z,18.50
2018-09-26T12:32:39.003Z,18.90
2018-09-26T12:35:07.783Z,19.20
2018-09-26T12:37:36.407Z,19.20
2018-09-26T12:40:05.206Z,19.30
2018-09-26T12:42:33.708Z,19.10
2018-09-26T12:45:02.599Z,18.70
2018-09-26T12:47:31.180Z,18.50
2018-09-26T12:49:59.670Z,18.30
2018-09-26T12:52:28.172Z,17.90
2018-09-26T12:54:56.749Z,17.70
2018-09-26T12:57:25.281Z,17.60
2018-09-26T12:59:53.758Z,17.40
2018-09-26T13:02:22.385Z,17.20
2018-09-26T13:04:50.815Z,17.20
2018-09-26T13:07:19.290Z,17.20
2018-09-26T13:09:47.941Z,17.40
2018-09-26T13:12:16.524Z,17.40
2018-09-26T13:14:45.049Z,17.30
2018-09-26T13:17:13.568Z,17.30
2018-09-26T13:19:42.110Z,17.20
2018-09-26T13:22:11.217Z,17.40
2018-09-26T13:24:39.817Z,17.70
2018-09-26T13:27:10.401Z,17.80
2018-09-26T13:29:38.949Z,17.70
2018-09-26T13:32:07.491Z,17.40
2018-09-26T13:34:36.067Z,17.20
2018-09-26T13:37:04.657Z,17.20
2018-09-26T13:39:33.281Z,17.30
2018-09-26T13:42:01.803Z,17.30
2018-09-26T13:44:30.349Z,17.30
2018-09-26T13:46:58.983Z,17.20
2018-09-26T13:49:27.523Z,17.30
2018-09-26T13:51:56.108Z,17.30
2018-09-26T13:54:24.717Z,17.30
2018-09-26T13:56:53.219Z,17.50
2018-09-26T13:59:21.818Z,17.70
2018-09-26T14:01:52.391Z,17.50
2018-09-26T14:04:22.021Z,17.50
2018-09-26T14:06:50.559Z,17.70
2018-09-26T14:09:19.119Z,17.60
2018-09-26T14:11:47.605Z,17.50
2018-09-26T14:14:16.194Z,17.50
2018-09-26T14:16:44.743Z,17.60
2018-09-26T14:19:13.311Z,17.50
2018-09-26T14:21:41.883Z,17.40
2018-09-26T14:24:10.481Z,17.30
2018-09-26T14:26:39.051Z,17.30
2018-09-26T14:29:07.608Z,17.30
2018-09-26T14:31:36.212Z,17.30
2018-09-26T14:34:04.736Z,17.30
2018-09-26T14:36:33.294Z,17.30
2018-09-26T14:39:01.957Z,17.30
2018-09-26T14:41:30.421Z,17.30
2018-09-26T14:43:58.960Z,17.30
2018-09-26T14:46:27.606Z,17.20
2018-09-26T14:48:56.211Z,17.20
2018-09-26T14:51:24.799Z,17.10
2018-09-26T14:53:53.301Z,17.10
2018-09-26T14:56:21.921Z,17.00
2018-09-26T14:58:50.591Z,17.00
2018-09-26T15:01:19.284Z,17.00
2018-09-26T15:03:47.868Z,16.90
2018-09-26T15:06:16.427Z,16.90
2018-09-26T15:08:45.009Z,16.90
2018-09-26T15:11:13.658Z,16.80
2018-09-26T15:13:42.219Z,16.80
2018-09-26T15:16:10.894Z,16.70
2018-09-26T15:18:39.451Z,16.70
2018-09-26T15:21:08.058Z,16.70
2018-09-26T15:23:36.624Z,16.70
2018-09-26T15:26:05.263Z,16.60
2018-09-26T15:28:33.855Z,16.70
2018-09-26T15:31:02.435Z,16.70
2018-09-26T15:33:31.144Z,16.70
2018-09-26T15:35:59.748Z,16.70
2018-09-26T15:38:28.327Z,16.70
2018-09-26T15:40:56.935Z,16.70
2018-09-26T15:43:25.430Z,16.70
2018-09-26T15:45:53.913Z,16.70
2018-09-26T15:48:22.513Z,16.80
2018-09-26T15:50:51.118Z,16.90
2018-09-26T15:53:19.655Z,16.80
2018-09-26T15:55:48.284Z,16.80
2018-09-26T15:58:16.864Z,16.80
2018-09-26T16:00:45.421Z,16.80
2018-09-26T16:03:14.015Z,16.90
2018-09-26T16:05:42.568Z,16.90
2018-09-26T16:08:11.125Z,16.90
2018-09-26T16:10:39.674Z,16.80
2018-09-26T16:13:08.311Z,16.80
2018-09-26T16:15:36.909Z,16.80
2018-09-26T16:18:12.575Z,16.70
2018-09-26T16:20:41.116Z,16.70
2018-09-26T16:23:10.532Z,16.60
2018-09-26T16:25:39.172Z,16.60
2018-09-26T16:28:07.926Z,16.60
2018-09-26T16:30:36.473Z,16.50
2018-09-26T16:33:05.041Z,16.50
2018-09-26T16:35:33.575Z,16.50
2018-09-26T16:38:02.245Z,16.40
2018-09-26T16:40:30.837Z,16.30
2018-09-26T16:42:59.405Z,16.30
2018-09-26T16:45:27.997Z,16.20
2018-09-26T16:47:56.515Z,16.10
2018-09-26T16:50:25.137Z,16.10
2018-09-26T16:52:53.763Z,16.00
2018-09-26T16:55:22.318Z,16.10
2018-09-26T16:57:50.933Z,16.10
2018-09-26T17:00:19.619Z,16.10
2018-09-26T17:02:48.165Z,16.00
2018-09-26T17:05:16.749Z,15.70
2018-09-26T17:07:45.370Z,15.50
2018-09-26T17:10:14.876Z,15.40
2018-09-26T17:12:43.639Z,15.30
2018-09-26T17:15:12.299Z,15.20
2018-09-26T17:17:40.903Z,15.00
2018-09-26T17:20:09.623Z,14.90
2018-09-26T17:22:38.422Z,15.00
2018-09-26T17:25:07.093Z,14.90
2018-09-26T17:27:35.684Z,14.80
2018-09-26T17:30:04.364Z,14.50
2018-09-26T17:32:32.942Z,14.50
2018-09-26T17:35:01.545Z,14.50
2018-09-26T17:37:30.179Z,14.40
2018-09-26T17:39:58.875Z,14.20
2018-09-26T17:42:27.540Z,13.90
2018-09-26T17:44:56.104Z,13.70
2018-09-26T17:47:24.725Z,13.70
2018-09-26T17:49:53.325Z,13.70
2018-09-26T17:52:21.952Z,13.70
2018-09-26T17:54:50.437Z,13.70
2018-09-26T17:57:19.021Z,13.70
2018-09-26T17:59:47.603Z,13.70
2018-09-26T18:02:16.961Z,13.50
2018-09-26T18:04:45.511Z,13.40
2018-09-26T18:07:14.139Z,13.20
2018-09-26T18:09:42.778Z,13.00
2018-09-26T18:12:11.310Z,12.90
2018-09-26T18:14:39.924Z,12.90
2018-09-26T18:17:08.673Z,12.70
2018-09-26T18:19:37.374Z,12.60
2018-09-26T18:22:05.985Z,12.50
2018-09-26T18:24:34.800Z,12.40
2018-09-26T18:29:39.226Z,12.30
2018-09-26T18:32:07.846Z,12.10
2018-09-26T18:34:36.428Z,12.20
2018-09-26T18:37:05.098Z,12.00
2018-09-26T18:39:33.651Z,11.90
2018-09-26T18:42:02.286Z,12.00
2018-09-26T18:44:30.950Z,12.10
2018-09-26T18:46:59.542Z,12.00
2018-09-26T18:49:28.151Z,11.70
2018-09-26T18:51:56.807Z,11.70
2018-09-26T18:54:25.425Z,11.60
2018-09-26T18:56:53.995Z,11.60
2018-09-26T18:59:22.626Z,11.60
2018-09-26T19:01:51.246Z,11.60
2018-09-26T19:04:19.864Z,11.40
2018-09-26T19:06:48.492Z,11.50
2018-09-26T19:09:17.037Z,11.50
2018-09-26T19:11:45.682Z,11.40
2018-09-26T19:14:14.212Z,11.40
2018-09-26T19:16:42.821Z,11.30
2018-09-26T19:19:11.373Z,11.00
2018-09-26T19:21:39.898Z,10.80
2018-09-26T19:24:08.538Z,10.70
2018-09-26T19:26:37.204Z,10.60
2018-09-26T19:29:05.849Z,10.70
2018-09-26T19:31:34.448Z,10.70
2018-09-26T19:34:05.947Z,10.70
2018-09-26T19:36:34.488Z,10.80
2018-09-26T19:39:03.206Z,10.80
2018-09-26T19:41:34.580Z,10.60
2018-09-26T19:44:03.768Z,10.60
2018-09-26T19:46:32.408Z,10.60
2018-09-26T19:49:01.048Z,10.60
2018-09-26T19:51:29.671Z,10.60
2018-09-26T19:53:58.264Z,10.40
2018-09-26T19:56:27.031Z,10.30
2018-09-26T19:58:55.482Z,10.40
2018-09-26T20:01:24.126Z,10.30
2018-09-26T20:03:52.680Z,10.20
2018-09-26T20:06:21.282Z,10.00
2018-09-26T20:08:49.894Z,10.10
2018-09-26T20:11:18.515Z,10.20
2018-09-26T20:13:47.044Z,10.30
2018-09-26T20:16:15.598Z,10.10
2018-09-26T20:18:44.219Z,10.10
2018-09-26T20:21:12.702Z,10.00
2018-09-26T20:23:41.278Z,10.00
2018-09-26T20:26:09.786Z,9.90
2018-09-26T20:28:38.458Z,10.00
2018-09-26T20:31:07.264Z,9.90
2018-09-26T20:33:35.804Z,9.80
2018-09-26T20:36:11.705Z,9.90
2018-09-26T20:38:40.317Z,9.70
2018-09-26T20:41:09.241Z,9.70
2018-09-26T20:43:37.839Z,9.70
2018-09-26T20:46:06.441Z,9.60
2018-09-26T20:48:35.268Z,9.50
2018-09-26T20:51:04.050Z,9.50
2018-09-26T20:53:32.549Z,9.70
2018-09-26T20:56:01.204Z,9.70
2018-09-26T20:58:29.816Z,9.60
2018-09-26T21:00:58.369Z,9.20
2018-09-26T21:03:26.886Z,9.20
2018-09-26T21:05:55.445Z,9.40
2018-09-26T21:08:23.935Z,9.30
2018-09-26T21:10:52.507Z,9.30
2018-09-26T21:13:27.610Z,9.50
2018-09-26T21:15:56.191Z,9.30
2018-09-26T21:18:24.733Z,9.30
2018-09-26T21:20:53.223Z,9.30
2018-09-26T21:23:21.794Z,9.30
2018-09-26T21:25:50.330Z,9.10
2018-09-26T21:28:18.848Z,9.10
2018-09-26T21:30:47.407Z,9.10
2018-09-26T21:33:15.977Z,9.10
2018-09-26T21:35:44.539Z,9.10
2018-09-26T21:38:13.131Z,9.00
2018-09-26T21:40:41.812Z,9.30
2018-09-26T21:43:10.391Z,9.10
2018-09-26T21:45:38.944Z,8.90
2018-09-26T21:48:07.421Z,8.60
2018-09-26T21:50:35.967Z,8.50
2018-09-26T21:53:04.462Z,8.60
2018-09-26T21:55:33.034Z,8.60
2018-09-26T21:58:01.564Z,8.30
2018-09-26T22:00:30.069Z,8.30
2018-09-26T22:02:58.506Z,8.70
2018-09-26T22:05:26.940Z,8.90
2018-09-26T22:07:55.341Z,8.60
2018-09-26T22:10:23.753Z,8.50
2018-09-26T22:12:52.141Z,8.40
2018-09-26T22:15:23.789Z,8.20
2018-09-26T22:17:53.696Z,8.00
2018-09-26T22:20:22.141Z,8.00
2018-09-26T22:22:50.975Z,7.90
2018-09-26T22:25:19.527Z,8.00
2018-09-26T22:27:48.027Z,8.00
2018-09-26T22:30:16.446Z,8.00
2018-09-26T22:32:44.844Z,8.10
2018-09-26T22:35:13.258Z,8.10
2018-09-26T22:37:41.668Z,8.10
2018-09-26T22:40:10.117Z,8.10
2018-09-26T22:42:38.523Z,8.20
2018-09-26T22:45:11.966Z,7.90
2018-09-26T22:47:40.374Z,8.10
2018-09-26T22:50:08.829Z,8.20
2018-09-26T22:52:37.231Z,8.10
2018-09-26T22:55:05.700Z,8.10
2018-09-26T22:57:34.089Z,8.10
2018-09-26T23:00:03.167Z,8.10
2018-09-26T23:02:31.593Z,7.90
2018-09-26T23:05:00.021Z,7.90
2018-09-26T23:07:28.435Z,8.00
2018-09-26T23:09:56.954Z,8.10
2018-09-26T23:12:25.390Z,8.10
2018-09-26T23:14:53.800Z,7.90
2018-09-26T23:17:22.209Z,7.80
2018-09-26T23:19:50.603Z,7.60
2018-09-26T23:22:18.986Z,7.50
2018-09-26T23:24:47.499Z,7.40
2018-09-26T23:27:16.002Z,7.50
2018-09-26T23:29:44.430Z,7.60
2018-09-26T23:32:12.835Z,7.80
2018-09-26T23:34:41.256Z,7.80
2018-09-26T23:37:09.668Z,7.60
2018-09-26T23:39:38.060Z,7.30
2018-09-26T23:42:06.791Z,7.20
2018-09-26T23:44:35.186Z,7.50
2018-09-26T23:47:03.658Z,7.30
2018-09-26T23:49:32.051Z,7.50
2018-09-26T23:52:00.475Z,7.50
2018-09-26T23:54:28.900Z,7.80
2018-09-26T23:56:57.328Z,7.60
2018-09-26T23:59:25.724Z,7.40
